Time;durP1;ratioP1;P1;durP2;ratioP2;P2;SDS_P1;SDS_P2;PMS_P1;PMS_P2;Temp;Humidity;BMP_temperature;BMP_pressure;BME280_temperature;BME280_humidity;BME280_pressure;Samples;Min_cycle;Max_cycle;Signal;HPM_P1;HPM_P2
2021/11/13 00:00:18;;;;;;;8.38;6.18;;;11.50;74.80;;;;;;5055380;28;20032;-78
2021/11/13 00:02:45;;;;;;;7.20;4.85;;;11.50;74.80;;;;;;5056034;28;20128;-77
2021/11/13 00:05:12;;;;;;;7.13;5.28;;;11.60;74.80;;;;;;5055562;28;20458;-79
2021/11/13 00:07:37;;;;;;;7.75;5.85;;;11.60;74.80;;;;;;5055360;28;20017;-77
2021/11/13 00:10:05;;;;;;;7.18;5.65;;;11.60;74.80;;;;;;5055437;28;20495;-79
2021/11/13 00:12:31;;;;;;;7.35;5.50;;;11.60;74.80;;;;;;5039388;28;20402;-79
2021/11/13 00:14:58;;;;;;;7.45;5.68;;;11.60;74.80;;;;;;5055160;28;20114;-78
2021/11/13 00:17:24;;;;;;;7.53;5.95;;;11.60;74.80;;;;;;5055062;28;20025;-80
2021/11/13 00:19:50;;;;;;;6.75;5.30;;;11.60;74.80;;;;;;5055839;28;20013;-78
2021/11/13 00:22:16;;;;;;;7.05;5.38;;;11.60;74.80;;;;;;5055191;28;20025;-79
2021/11/13 00:24:42;;;;;;;7.63;5.43;;;11.60;74.80;;;;;;5054914;28;20040;-79
2021/11/13 00:27:08;;;;;;;8.82;6.10;;;11.60;74.80;;;;;;5039222;28;20033;-79
2021/11/13 00:29:34;;;;;;;6.65;4.93;;;11.60;74.80;;;;;;5054794;28;20064;-79
2021/11/13 00:32:00;;;;;;;7.55;5.72;;;11.60;74.80;;;;;;5054508;28;20025;-78
2021/11/13 00:34:27;;;;;;;7.32;5.35;;;11.60;74.80;;;;;;5071674;28;20025;-78
2021/11/13 00:36:54;;;;;;;7.32;5.40;;;11.60;74.80;;;;;;5054873;28;20123;-79
2021/11/13 00:39:20;;;;;;;7.57;5.78;;;11.60;74.80;;;;;;5055297;28;20448;-79
2021/11/13 00:41:48;;;;;;;6.97;5.22;;;11.60;74.80;;;;;;5054706;28;20056;-81
2021/11/13 00:44:14;;;;;;;7.72;5.55;;;11.60;74.80;;;;;;5037832;28;20041;-81
2021/11/13 00:46:40;;;;;;;7.68;5.53;;;11.70;74.80;;;;;;5054481;28;20125;-78
2021/11/13 00:49:06;;;;;;;7.05;5.43;;;11.70;74.80;;;;;;5037933;28;20124;-78
2021/11/13 00:51:33;;;;;;;7.60;5.53;;;11.60;74.70;;;;;;5054351;28;20457;-80
2021/11/13 00:53:59;;;;;;;7.45;5.43;;;11.70;74.80;;;;;;5054152;28;20037;-80
2021/11/13 00:56:25;;;;;;;7.43;5.53;;;11.60;74.80;;;;;;5054494;28;20033;-79
2021/11/13 00:58:51;;;;;;;7.75;6.03;;;11.70;74.80;;;;;;5054743;28;20029;-79
2021/11/13 01:01:17;;;;;;;8.27;5.80;;;11.70;74.80;;;;;;5054243;28;20024;-79
2021/11/13 01:03:43;;;;;;;7.72;5.35;;;11.70;74.80;;;;;;5054404;28;20056;-79
2021/11/13 01:06:09;;;;;;;7.07;5.43;;;11.70;74.80;;;;;;5054015;28;20553;-79
2021/11/13 01:08:35;;;;;;;7.60;5.53;;;11.70;74.80;;;;;;5054252;28;20025;-80
2021/11/13 01:11:01;;;;;;;8.00;5.75;;;11.70;74.80;;;;;;5037753;28;20132;-79
2021/11/13 01:13:27;;;;;;;8.07;6.45;;;11.70;74.80;;;;;;5053996;28;20044;-79
2021/11/13 01:15:55;;;;;;;7.57;5.55;;;11.70;74.80;;;;;;5053904;28;20079;-79
2021/11/13 01:18:22;;;;;;;7.70;6.00;;;11.70;74.80;;;;;;5053888;28;20033;-79
2021/11/13 01:20:48;;;;;;;7.35;5.43;;;11.70;74.80;;;;;;5037574;28;20033;-79
2021/11/13 01:23:14;;;;;;;7.70;5.82;;;11.70;74.80;;;;;;5070795;28;20116;-78
2021/11/13 01:25:40;;;;;;;7.18;5.70;;;11.80;74.90;;;;;;5055138;28;20040;-78
2021/11/13 01:28:10;;;;;;;7.55;5.65;;;11.70;74.80;;;;;;5037965;28;20029;-78
2021/11/13 01:30:36;;;;;;;7.07;5.45;;;11.80;74.80;;;;;;5037027;28;20056;-79
2021/11/13 01:33:02;;;;;;;7.45;5.60;;;11.70;74.80;;;;;;5053788;28;20025;-80
2021/11/13 01:35:28;;;;;;;7.32;5.47;;;11.70;74.80;;;;;;5037103;28;20428;-79
2021/11/13 01:37:53;;;;;;;7.25;5.55;;;11.70;74.80;;;;;;5070075;28;20495;-79
2021/11/13 01:40:23;;;;;;;8.50;6.18;;;11.80;74.80;;;;;;5053552;28;20025;-79
2021/11/13 01:42:49;;;;;;;7.88;6.07;;;11.80;74.80;;;;;;5053641;28;20147;-79
2021/11/13 01:45:16;;;;;;;7.30;5.65;;;11.80;74.80;;;;;;5036640;28;20067;-79
2021/11/13 01:47:43;;;;;;;7.40;5.55;;;11.80;74.80;;;;;;5037795;28;20029;-78
2021/11/13 01:50:34;;;;;;;7.70;5.65;;;11.70;74.80;;;;;;5053356;28;20125;-77
2021/11/13 01:53:00;;;;;;;7.60;5.95;;;11.80;75.00;;;;;;5053465;28;20033;-78
2021/11/13 01:55:33;;;;;;;7.75;5.72;;;11.80;74.80;;;;;;5053823;28;20032;-78
2021/11/13 01:58:01;;;;;;;8.10;6.05;;;11.70;74.80;;;;;;5054298;28;20108;-79
2021/11/13 02:00:36;;;;;;;7.82;5.88;;;11.80;75.50;;;;;;5036892;28;20029;-78
2021/11/13 02:03:02;;;;;;;7.65;5.72;;;11.80;74.90;;;;;;5053060;28;20032;-78
2021/11/13 02:05:28;;;;;;;7.60;5.72;;;11.80;74.80;;;;;;5054051;28;20024;-79
2021/11/13 02:07:55;;;;;;;8.55;6.25;;;11.80;74.80;;;;;;5053252;28;20457;-78
2021/11/13 02:10:25;;;;;;;8.88;6.28;;;11.80;74.80;;;;;;5052905;28;20032;-78
2021/11/13 02:12:51;;;;;;;7.15;5.30;;;11.80;74.90;;;;;;5053806;28;20575;-79
2021/11/13 02:15:17;;;;;;;7.82;5.35;;;11.80;74.80;;;;;;5052888;28;20082;-77
2021/11/13 02:17:43;;;;;;;8.40;5.90;;;11.80;74.80;;;;;;5069663;28;20116;-78
2021/11/13 02:20:30;;;;;;;7.20;5.22;;;11.80;74.80;;;;;;5054045;28;20029;-78
2021/11/13 02:23:00;;;;;;;7.93;5.70;;;11.80;74.90;;;;;;5053029;28;20056;-78
2021/11/13 02:25:28;;;;;;;6.85;5.30;;;11.90;74.80;;;;;;5052996;28;20017;-78
2021/11/13 02:27:55;;;;;;;7.72;5.65;;;11.90;74.80;;;;;;5052771;28;20534;-79
2021/11/13 02:30:21;;;;;;;6.72;5.35;;;11.80;74.80;;;;;;5052486;28;20129;-79
2021/11/13 02:32:48;;;;;;;8.68;5.57;;;11.90;74.90;;;;;;5052455;28;20033;-78
2021/11/13 02:35:17;;;;;;;6.90;5.45;;;11.80;74.80;;;;;;5052404;28;20025;-79
2021/11/13 02:37:44;;;;;;;7.25;5.10;;;11.80;74.80;;;;;;5054163;28;20032;-81
2021/11/13 02:40:11;;;;;;;7.95;5.75;;;11.90;74.80;;;;;;5052848;28;20025;-78
2021/11/13 02:42:38;;;;;;;8.52;5.70;;;11.90;74.90;;;;;;5052191;28;20025;-77
2021/11/13 02:45:05;;;;;;;6.80;5.30;;;11.90;74.80;;;;;;5069539;28;20037;-79
2021/11/13 02:47:34;;;;;;;7.38;5.40;;;11.90;74.80;;;;;;5052528;28;20032;-79
2021/11/13 02:50:00;;;;;;;7.68;5.47;;;11.90;74.80;;;;;;5053060;28;20037;-78
2021/11/13 02:52:26;;;;;;;6.80;5.15;;;11.90;74.80;;;;;;5053299;28;20425;-79
2021/11/13 02:54:54;;;;;;;6.65;5.03;;;11.90;74.80;;;;;;5052325;28;20037;-78
2021/11/13 02:57:20;;;;;;;7.47;5.90;;;11.90;74.80;;;;;;5052823;28;20060;-79
2021/11/13 02:59:49;;;;;;;7.90;5.90;;;11.90;74.80;;;;;;5052020;28;20025;-81
2021/11/13 03:02:16;;;;;;;7.43;5.85;;;11.90;74.80;;;;;;5068270;28;20033;-78
2021/11/13 03:04:42;;;;;;;6.63;4.85;;;11.90;74.80;;;;;;5052245;28;20024;-81
2021/11/13 03:07:08;;;;;;;6.90;4.95;;;11.90;74.80;;;;;;5052240;28;20021;-80
2021/11/13 03:09:37;;;;;;;6.88;5.18;;;12.00;74.80;;;;;;5052359;28;20033;-79
2021/11/13 03:12:03;;;;;;;7.63;5.65;;;11.90;74.80;;;;;;5052658;28;20028;-78
2021/11/13 03:14:30;;;;;;;6.53;4.88;;;12.00;74.80;;;;;;5052549;28;20041;-78
2021/11/13 03:17:03;;;;;;;6.57;5.22;;;12.00;74.80;;;;;;5052717;28;20120;-79
2021/11/13 03:19:32;;;;;;;7.20;5.30;;;12.00;74.90;;;;;;5068255;28;20534;-79
2021/11/13 03:21:57;;;;;;;6.65;5.10;;;12.00;74.80;;;;;;5054780;28;20037;-79
2021/11/13 03:24:26;;;;;;;7.00;5.20;;;12.00;74.80;;;;;;5056522;28;20066;-79
2021/11/13 03:26:51;;;;;;;7.22;5.53;;;12.00;74.80;;;;;;5056937;28;20029;-79
2021/11/13 03:29:26;;;;;;;7.05;5.28;;;12.00;74.80;;;;;;5057142;28;20128;-78
2021/11/13 03:31:53;;;;;;;6.75;5.13;;;12.00;74.80;;;;;;5055960;28;20061;-78
2021/11/13 03:34:19;;;;;;;7.68;5.60;;;12.00;74.80;;;;;;5055752;28;20037;-79
2021/11/13 03:36:44;;;;;;;7.05;5.40;;;12.00;74.80;;;;;;5056494;28;20047;-79
2021/11/13 03:39:10;;;;;;;7.40;5.55;;;12.00;74.80;;;;;;5038947;28;20520;-79
2021/11/13 03:41:37;;;;;;;7.03;5.20;;;12.00;74.80;;;;;;5056375;28;20128;-78
2021/11/13 03:44:03;;;;;;;6.97;5.22;;;12.00;74.80;;;;;;5056713;28;20033;-78
2021/11/13 03:46:29;;;;;;;6.53;5.03;;;12.00;74.80;;;;;;5056677;28;20108;-78
2021/11/13 03:48:55;;;;;;;6.68;4.75;;;12.00;74.80;;;;;;5055953;28;20118;-78
2021/11/13 03:51:21;;;;;;;6.90;5.50;;;12.00;74.80;;;;;;5056869;28;20116;-79
2021/11/13 03:53:49;;;;;;;7.00;5.25;;;12.00;74.80;;;;;;5055375;28;20461;-79
2021/11/13 03:56:15;;;;;;;5.95;5.03;;;12.10;74.80;;;;;;5055822;28;20040;-77
2021/11/13 03:58:40;;;;;;;6.45;4.95;;;12.00;74.80;;;;;;5055349;28;20075;-78
2021/11/13 04:01:06;;;;;;;7.00;5.32;;;12.10;74.80;;;;;;5055032;28;20055;-79
2021/11/13 04:03:32;;;;;;;6.57;5.00;;;12.00;74.80;;;;;;5072254;28;20033;-79
2021/11/13 04:05:58;;;;;;;6.72;5.10;;;12.10;74.80;;;;;;5055062;28;20461;-78
2021/11/13 04:08:24;;;;;;;6.60;4.97;;;12.10;74.80;;;;;;5056608;28;20092;-78
2021/11/13 04:10:50;;;;;;;6.63;5.00;;;12.10;74.80;;;;;;5055302;28;20052;-79
2021/11/13 04:13:16;;;;;;;7.30;5.63;;;12.10;74.80;;;;;;5055086;28;20025;-78
2021/11/13 04:15:41;;;;;;;7.68;5.63;;;12.10;74.80;;;;;;5055748;28;20029;-78
2021/11/13 04:18:07;;;;;;;6.55;5.13;;;12.10;74.80;;;;;;5055635;28;20112;-78
2021/11/13 04:20:33;;;;;;;6.10;4.72;;;12.10;74.80;;;;;;5054860;28;20424;-78
2021/11/13 04:22:59;;;;;;;7.00;5.25;;;12.10;74.80;;;;;;5038630;28;20036;-78
2021/11/13 04:25:26;;;;;;;6.78;5.53;;;12.10;74.80;;;;;;5054826;28;20036;-78
2021/11/13 04:27:53;;;;;;;7.15;5.35;;;12.10;74.80;;;;;;5038604;28;20028;-81
2021/11/13 04:30:19;;;;;;;5.97;4.65;;;12.20;74.90;;;;;;5055455;28;20049;-79
2021/11/13 04:32:47;;;;;;;6.70;5.18;;;12.10;74.80;;;;;;5071398;28;20033;-79
2021/11/13 04:35:20;;;;;;;6.47;5.03;;;12.10;74.80;;;;;;5055024;28;20029;-78
2021/11/13 04:37:49;;;;;;;6.00;4.70;;;12.10;74.80;;;;;;5055380;28;20354;-79
2021/11/13 04:40:17;;;;;;;6.15;4.82;;;12.20;74.90;;;;;;5054542;28;20098;-78
2021/11/13 04:42:43;;;;;;;7.13;5.07;;;12.20;74.80;;;;;;5070986;28;20417;-78
2021/11/13 04:45:09;;;;;;;6.88;5.32;;;12.20;74.80;;;;;;5054512;28;20037;-79
2021/11/13 04:47:35;;;;;;;6.38;5.13;;;12.20;74.80;;;;;;5038064;28;20500;-79
2021/11/13 04:50:03;;;;;;;6.30;4.97;;;12.20;74.80;;;;;;5054456;28;20044;-78
2021/11/13 04:52:29;;;;;;;6.47;4.97;;;12.20;74.80;;;;;;5070653;28;20079;-79
2021/11/13 04:54:55;;;;;;;7.03;5.68;;;12.20;74.80;;;;;;5054280;28;20041;-79
2021/11/13 04:57:21;;;;;;;6.82;5.25;;;12.20;74.80;;;;;;5054236;28;20128;-80
2021/11/13 04:59:47;;;;;;;6.93;5.40;;;12.20;74.80;;;;;;5071198;28;20381;-78
2021/11/13 05:02:12;;;;;;;6.90;5.50;;;12.30;74.90;;;;;;5054102;28;20536;-78
2021/11/13 05:04:38;;;;;;;7.15;5.15;;;12.30;74.90;;;;;;5037095;28;20067;-79
2021/11/13 05:07:04;;;;;;;6.45;4.82;;;12.20;74.80;;;;;;5054003;28;20027;-79
2021/11/13 05:09:30;;;;;;;6.60;4.75;;;12.20;74.80;;;;;;5053947;28;20426;-81
2021/11/13 05:11:55;;;;;;;6.75;5.50;;;12.20;74.80;;;;;;5070337;28;20033;-79
2021/11/13 05:14:21;;;;;;;6.22;4.97;;;12.20;74.80;;;;;;5054197;28;20032;-78
2021/11/13 05:16:47;;;;;;;6.35;4.88;;;12.30;74.80;;;;;;5053884;28;20037;-78
2021/11/13 05:19:12;;;;;;;7.57;5.32;;;12.30;74.80;;;;;;5053534;28;20444;-78
2021/11/13 05:21:38;;;;;;;7.03;4.97;;;12.30;74.80;;;;;;5053685;28;20025;-80
2021/11/13 05:24:04;;;;;;;6.70;5.20;;;12.30;74.80;;;;;;5070205;28;20588;-79
2021/11/13 05:26:31;;;;;;;6.65;5.30;;;12.30;74.80;;;;;;5053773;28;20166;-78
2021/11/13 05:28:56;;;;;;;6.35;5.25;;;12.30;74.80;;;;;;5053422;28;20485;-79
2021/11/13 05:31:22;;;;;;;7.10;5.05;;;12.30;74.80;;;;;;5054614;28;20033;-80
2021/11/13 05:33:48;;;;;;;7.25;5.18;;;12.30;74.80;;;;;;5036500;28;20470;-79
2021/11/13 05:36:14;;;;;;;6.07;4.78;;;12.30;74.80;;;;;;5053747;28;20033;-79
2021/11/13 05:38:39;;;;;;;6.18;5.15;;;12.30;74.80;;;;;;5053147;28;20032;-78
2021/11/13 05:41:05;;;;;;;5.82;4.55;;;12.30;74.80;;;;;;5053415;28;20048;-78
2021/11/13 05:43:31;;;;;;;6.65;5.22;;;12.30;74.80;;;;;;5053161;28;20033;-79
2021/11/13 05:45:57;;;;;;;6.40;5.15;;;12.30;74.80;;;;;;5052801;28;20137;-79
2021/11/13 05:48:23;;;;;;;6.78;4.95;;;12.40;74.80;;;;;;5037001;28;20029;-78
2021/11/13 05:50:49;;;;;;;5.70;4.57;;;12.30;74.80;;;;;;5053240;28;20029;-78
2021/11/13 05:53:14;;;;;;;6.60;5.10;;;12.40;74.80;;;;;;5053479;28;20063;-79
2021/11/13 05:55:40;;;;;;;6.30;4.78;;;12.40;74.80;;;;;;5070197;28;20032;-79
2021/11/13 05:58:06;;;;;;;6.53;4.78;;;12.40;74.80;;;;;;5053046;28;20059;-78
2021/11/13 06:00:34;;;;;;;7.20;5.20;;;12.40;74.80;;;;;;5052975;28;20469;-78
2021/11/13 06:03:00;;;;;;;6.55;4.90;;;12.40;74.80;;;;;;5053526;28;20124;-80
2021/11/13 06:05:27;;;;;;;6.43;4.65;;;12.40;74.80;;;;;;5053148;28;20420;-79
2021/11/13 06:07:53;;;;;;;5.93;4.80;;;12.40;74.80;;;;;;5052823;28;20021;-79
2021/11/13 06:10:20;;;;;;;6.78;4.97;;;12.40;74.80;;;;;;5052686;28;20381;-80
2021/11/13 06:12:46;;;;;;;6.18;4.75;;;12.40;74.80;;;;;;5053070;28;20033;-79
2021/11/13 06:15:12;;;;;;;6.10;4.53;;;12.40;74.80;;;;;;5052603;28;20363;-78
2021/11/13 06:17:39;;;;;;;6.60;4.90;;;12.40;74.80;;;;;;5052403;28;20041;-80
2021/11/13 06:20:07;;;;;;;5.18;4.03;;;12.40;74.80;;;;;;5052701;28;20028;-79
2021/11/13 06:22:32;;;;;;;5.72;4.35;;;12.40;74.80;;;;;;5052744;28;20033;-79
2021/11/13 06:24:58;;;;;;;5.80;4.32;;;12.40;74.80;;;;;;5036046;28;20036;-79
2021/11/13 06:27:24;;;;;;;7.35;4.90;;;12.40;74.80;;;;;;5069800;28;20079;-78
2021/11/13 06:29:50;;;;;;;5.68;4.38;;;12.50;74.80;;;;;;5052715;28;20056;-79
2021/11/13 06:32:17;;;;;;;5.75;4.22;;;12.40;74.80;;;;;;5036189;28;20041;-78
2021/11/13 06:34:43;;;;;;;5.40;4.30;;;12.50;74.80;;;;;;5069258;28;20033;-78
2021/11/13 06:37:10;;;;;;;5.85;4.50;;;12.40;74.80;;;;;;5053297;28;20063;-79
2021/11/13 06:39:36;;;;;;;6.05;4.40;;;12.50;74.80;;;;;;5052577;28;20036;-77
2021/11/13 06:42:04;;;;;;;5.38;4.43;;;12.40;74.80;;;;;;5068921;28;20020;-79
2021/11/13 06:44:30;;;;;;;5.60;4.30;;;12.50;74.80;;;;;;5053100;28;20124;-79
2021/11/13 06:46:56;;;;;;;6.90;4.47;;;12.50;74.80;;;;;;5052348;28;20036;-81
2021/11/13 06:49:22;;;;;;;6.20;4.57;;;12.50;74.80;;;;;;5052531;28;20044;-79
2021/11/13 06:51:51;;;;;;;5.65;4.22;;;12.50;74.80;;;;;;5053397;28;20029;-78
2021/11/13 06:54:17;;;;;;;5.50;4.28;;;12.50;74.80;;;;;;5052343;28;20397;-79
2021/11/13 06:56:43;;;;;;;5.15;3.92;;;12.50;74.80;;;;;;5052071;28;20450;-79
2021/11/13 06:59:09;;;;;;;4.57;3.72;;;12.50;74.80;;;;;;5052009;28;20028;-80
2021/11/13 07:01:35;;;;;;;5.47;4.28;;;12.50;74.80;;;;;;5052491;28;20029;-78
2021/11/13 07:04:01;;;;;;;5.82;4.28;;;12.50;74.80;;;;;;5052212;28;20479;-77
2021/11/13 07:06:27;;;;;;;5.50;4.13;;;12.50;74.80;;;;;;5052690;28;20029;-79
2021/11/13 07:08:53;;;;;;;5.00;4.00;;;12.50;74.80;;;;;;5053000;28;20468;-79
2021/11/13 07:11:19;;;;;;;4.80;3.92;;;12.50;74.80;;;;;;5052148;28;20476;-79
2021/11/13 07:13:44;;;;;;;5.28;4.07;;;12.60;74.80;;;;;;5052119;28;20037;-79
2021/11/13 07:16:10;;;;;;;5.25;3.72;;;12.50;74.80;;;;;;5052175;28;20040;-80
2021/11/13 07:18:36;;;;;;;5.70;4.07;;;12.50;74.80;;;;;;5052388;28;20063;-78
2021/11/13 07:21:06;;;;;;;5.47;4.03;;;12.50;74.70;;;;;;5052494;28;20410;-78
2021/11/13 07:23:33;;;;;;;4.97;3.80;;;12.50;74.80;;;;;;5054019;28;20036;-80
2021/11/13 07:26:00;;;;;;;4.93;3.88;;;12.50;74.70;;;;;;5053745;28;20035;-79
2021/11/13 07:31:00;;;;;;;6.10;4.43;;;12.60;74.80;;;;;;5052976;28;20048;-79
2021/11/13 07:33:27;;;;;;;5.30;3.90;;;12.60;74.80;;;;;;5053239;28;20091;-79
2021/11/13 07:35:53;;;;;;;4.55;3.67;;;12.60;74.80;;;;;;5052083;28;20033;-80
2021/11/13 07:38:18;;;;;;;5.38;4.10;;;12.60;74.80;;;;;;5053049;28;20056;-79
2021/11/13 07:40:44;;;;;;;5.10;3.95;;;12.60;74.80;;;;;;5068256;28;20065;-80
2021/11/13 07:43:10;;;;;;;5.28;3.92;;;12.50;74.80;;;;;;5051673;28;20025;-80
2021/11/13 07:45:36;;;;;;;4.75;3.53;;;12.50;74.80;;;;;;5051988;28;20090;-79
2021/11/13 07:48:04;;;;;;;5.63;4.15;;;12.50;74.80;;;;;;5051855;28;20393;-80
2021/11/13 07:50:31;;;;;;;5.03;3.72;;;12.60;74.80;;;;;;5068766;28;20025;-81
2021/11/13 07:52:57;;;;;;;5.85;3.97;;;12.60;74.80;;;;;;5052504;28;20427;-80
2021/11/13 07:55:23;;;;;;;4.10;3.35;;;12.50;74.80;;;;;;5051321;28;20049;-79
2021/11/13 07:57:49;;;;;;;5.20;4.15;;;12.50;74.80;;;;;;5068729;28;20052;-79
2021/11/13 08:00:18;;;;;;;5.38;3.85;;;12.50;74.80;;;;;;5051838;28;20067;-79
2021/11/13 08:02:44;;;;;;;4.40;3.40;;;12.50;74.80;;;;;;5051849;28;20392;-79
2021/11/13 08:05:11;;;;;;;4.85;3.78;;;12.60;74.80;;;;;;5051734;28;20024;-80
2021/11/13 08:07:37;;;;;;;4.82;3.60;;;12.60;74.80;;;;;;5052605;28;20154;-79
2021/11/13 08:10:05;;;;;;;5.25;3.83;;;12.60;74.80;;;;;;5055386;28;20036;-79
2021/11/13 08:12:30;;;;;;;5.07;3.85;;;12.60;74.90;;;;;;5038622;28;20044;-80
2021/11/13 08:14:56;;;;;;;5.05;3.50;;;12.60;74.80;;;;;;5055082;28;20487;-80
2021/11/13 08:17:22;;;;;;;4.70;3.60;;;12.60;74.80;;;;;;5055209;28;20083;-80
2021/11/13 08:19:48;;;;;;;4.85;3.78;;;12.60;74.80;;;;;;5038895;28;20029;-79
2021/11/13 08:22:14;;;;;;;4.72;3.35;;;12.60;74.80;;;;;;5056140;28;20036;-79
2021/11/13 08:24:40;;;;;;;4.93;3.88;;;12.60;74.80;;;;;;5038604;28;20037;-79
2021/11/13 08:27:06;;;;;;;5.38;4.05;;;12.60;74.90;;;;;;5055779;28;20025;-79
2021/11/13 08:29:32;;;;;;;4.82;3.95;;;12.60;74.90;;;;;;5071451;28;20049;-80
2021/11/13 08:31:59;;;;;;;5.07;3.83;;;12.60;74.80;;;;;;5055696;28;20044;-80
2021/11/13 08:34:25;;;;;;;4.78;3.72;;;12.70;74.90;;;;;;5054979;28;20147;-80
2021/11/13 08:36:51;;;;;;;4.97;3.80;;;12.60;74.80;;;;;;5054922;28;20370;-79
2021/11/13 08:39:18;;;;;;;4.88;3.83;;;12.60;74.80;;;;;;5055450;28;20079;-79
2021/11/13 08:41:44;;;;;;;5.40;4.32;;;12.70;74.90;;;;;;5038497;28;20021;-78
2021/11/13 08:44:11;;;;;;;5.43;4.13;;;12.60;74.80;;;;;;5054555;28;20072;-78
2021/11/13 08:46:37;;;;;;;5.00;3.75;;;12.70;74.90;;;;;;5054960;28;20041;-81
2021/11/13 08:49:05;;;;;;;5.18;4.03;;;12.70;74.90;;;;;;5054604;28;20021;-77
2021/11/13 08:51:31;;;;;;;4.55;3.67;;;12.70;74.90;;;;;;5055514;28;20053;-79
2021/11/13 08:53:58;;;;;;;5.57;4.50;;;12.70;74.80;;;;;;5054736;28;20033;-79
2021/11/13 08:56:26;;;;;;;5.03;3.85;;;12.70;74.90;;;;;;5038783;28;20468;-78
2021/11/13 08:58:54;;;;;;;5.07;4.10;;;12.70;74.80;;;;;;5054864;28;20025;-79
2021/11/13 09:01:23;;;;;;;5.50;4.00;;;12.70;74.80;;;;;;5054391;28;20025;-79
2021/11/13 09:03:52;;;;;;;5.28;4.30;;;12.70;74.80;;;;;;5054394;28;20090;-78
2021/11/13 09:06:21;;;;;;;5.47;4.07;;;12.70;74.80;;;;;;5055995;28;20021;-79
2021/11/13 09:08:48;;;;;;;5.32;4.22;;;12.80;74.90;;;;;;5054944;28;20437;-80
2021/11/13 09:11:21;;;;;;;5.68;4.30;;;12.80;74.80;;;;;;5054283;28;20512;-80
2021/11/13 09:13:48;;;;;;;4.45;3.72;;;12.80;74.90;;;;;;5054061;28;20497;-77
2021/11/13 09:16:15;;;;;;;4.75;3.78;;;12.80;74.80;;;;;;5054099;28;20036;-80
2021/11/13 09:18:44;;;;;;;5.18;4.07;;;12.80;74.80;;;;;;5053745;28;20029;-80
2021/11/13 09:21:10;;;;;;;5.50;4.40;;;12.90;74.90;;;;;;5053580;28;20029;-77
2021/11/13 09:23:37;;;;;;;5.15;4.10;;;12.80;75.40;;;;;;5054071;28;20456;-77
2021/11/13 09:26:06;;;;;;;5.70;4.50;;;12.90;74.90;;;;;;5070509;28;20440;-79
2021/11/13 09:28:33;;;;;;;5.78;4.50;;;12.90;74.90;;;;;;5070603;28;20041;-79
2021/11/13 09:31:00;;;;;;;5.38;3.95;;;12.90;74.80;;;;;;5055684;28;20083;-78
2021/11/13 09:33:29;;;;;;;5.32;4.00;;;12.90;75.50;;;;;;5053839;28;20041;-77
2021/11/13 09:35:56;;;;;;;5.28;4.13;;;12.90;74.80;;;;;;5054649;28;20488;-79
2021/11/13 09:38:29;;;;;;;5.47;4.35;;;12.90;74.80;;;;;;5053831;28;20049;-80
2021/11/13 09:41:02;;;;;;;5.20;4.28;;;13.00;74.90;;;;;;5053981;28;20043;-80
2021/11/13 09:43:30;;;;;;;5.20;4.32;;;13.00;74.90;;;;;;5054610;28;20469;-79
2021/11/13 09:45:58;;;;;;;5.07;3.95;;;13.00;74.80;;;;;;5053568;28;20021;-78
2021/11/13 09:48:24;;;;;;;5.97;4.45;;;13.00;74.80;;;;;;5053672;28;20033;-79
2021/11/13 09:50:51;;;;;;;5.63;4.55;;;13.00;74.80;;;;;;5054401;28;20074;-78
2021/11/13 09:53:21;;;;;;;5.63;4.35;;;13.00;74.80;;;;;;5053461;28;20036;-79
2021/11/13 09:55:48;;;;;;;5.22;4.00;;;13.10;74.90;;;;;;5053667;28;20047;-78
2021/11/13 09:58:14;;;;;;;5.63;4.47;;;13.10;74.80;;;;;;5053305;28;20485;-77
2021/11/13 10:00:42;;;;;;;5.97;4.78;;;13.10;74.80;;;;;;5053416;28;20039;-77
2021/11/13 10:03:09;;;;;;;6.07;4.63;;;13.10;74.80;;;;;;5070134;28;20036;-78
2021/11/13 10:05:35;;;;;;;6.18;4.95;;;13.10;74.80;;;;;;5053998;28;20025;-78
2021/11/13 10:08:04;;;;;;;6.18;4.65;;;13.10;74.80;;;;;;5053513;28;20365;-77
2021/11/13 10:10:39;;;;;;;5.80;4.80;;;13.20;74.90;;;;;;5053055;28;20025;-78
2021/11/13 10:13:24;;;;;;;5.57;4.18;;;13.20;74.90;;;;;;5053285;28;20099;-78
2021/11/13 10:15:59;;;;;;;6.40;4.63;;;13.20;74.90;;;;;;5053439;28;20032;-78
2021/11/13 10:18:28;;;;;;;6.38;4.88;;;13.20;74.80;;;;;;5053052;28;20040;-79
2021/11/13 10:20:57;;;;;;;6.30;4.75;;;13.20;74.80;;;;;;5054355;28;20029;-78
2021/11/13 10:23:26;;;;;;;6.38;4.85;;;13.20;74.80;;;;;;5054147;28;20040;-79
2021/11/13 10:26:02;;;;;;;5.63;4.32;;;13.20;74.90;;;;;;5054323;28;20476;-78
2021/11/13 10:28:30;;;;;;;6.22;4.53;;;13.30;74.90;;;;;;5053080;28;20469;-78
2021/11/13 10:31:13;;;;;;;5.68;4.35;;;13.30;74.90;;;;;;5052621;28;20481;-77
2021/11/13 10:33:40;;;;;;;5.43;4.20;;;13.30;75.00;;;;;;5052250;28;20182;-81
2021/11/13 10:36:06;;;;;;;5.85;4.63;;;13.30;74.90;;;;;;5052623;28;20120;-78
2021/11/13 10:38:33;;;;;;;5.82;4.57;;;13.30;74.90;;;;;;5069487;28;20021;-78
2021/11/13 10:41:04;;;;;;;7.00;4.65;;;13.30;75.10;;;;;;5052812;28;20025;-78
2021/11/13 10:43:44;;;;;;;6.28;4.63;;;13.40;75.00;;;;;;5052770;28;20455;-77
2021/11/13 10:46:19;;;;;;;5.38;4.57;;;13.40;75.00;;;;;;5069440;28;20033;-77
2021/11/13 10:48:54;;;;;;;6.78;4.93;;;13.40;74.90;;;;;;5052507;28;20031;-77
2021/11/13 10:51:30;;;;;;;5.60;4.50;;;13.40;74.90;;;;;;5052826;28;20029;-77
2021/11/13 10:53:57;;;;;;;5.68;4.55;;;13.40;74.80;;;;;;5053937;28;20037;-77
2021/11/13 10:56:25;;;;;;;6.35;4.80;;;13.50;74.90;;;;;;5052681;28;20025;-78
2021/11/13 10:59:02;;;;;;;5.97;4.65;;;13.50;74.90;;;;;;5069142;28;20104;-80
2021/11/13 11:01:41;;;;;;;6.07;4.47;;;13.50;75.00;;;;;;5052826;28;20056;-79
2021/11/13 11:04:20;;;;;;;6.30;5.10;;;13.50;74.90;;;;;;5052717;28;20029;-81
2021/11/13 11:07:02;;;;;;;5.95;4.63;;;13.50;74.90;;;;;;5051898;28;20027;-77
2021/11/13 11:09:39;;;;;;;5.43;4.57;;;13.50;74.90;;;;;;5053118;28;20029;-79
2021/11/13 11:12:08;;;;;;;5.63;4.38;;;13.50;74.90;;;;;;5052229;28;20110;-78
2021/11/13 11:14:37;;;;;;;5.93;4.22;;;13.60;74.80;;;;;;5052805;28;20041;-79
2021/11/13 11:17:09;;;;;;;5.75;4.63;;;13.60;74.90;;;;;;5053373;28;20323;-77
2021/11/13 11:19:36;;;;;;;5.50;4.50;;;13.60;74.90;;;;;;5068894;28;20103;-77
2021/11/13 11:22:05;;;;;;;6.30;4.60;;;13.60;74.80;;;;;;5052175;28;20428;-79
2021/11/13 11:24:49;;;;;;;6.18;4.53;;;13.60;74.80;;;;;;5053406;28;20032;-78
2021/11/13 11:27:20;;;;;;;6.25;4.72;;;13.60;74.90;;;;;;5052219;28;20363;-77
2021/11/13 11:29:51;;;;;;;6.35;5.03;;;13.70;74.90;;;;;;5053197;28;20041;-77
2021/11/13 11:32:20;;;;;;;6.63;5.03;;;13.60;74.80;;;;;;5052310;28;20033;-78
2021/11/13 11:34:48;;;;;;;6.28;4.97;;;13.70;74.80;;;;;;5051823;28;20473;-77
2021/11/13 11:37:24;;;;;;;6.38;4.82;;;13.70;74.80;;;;;;5052086;28;20021;-77
2021/11/13 11:39:56;;;;;;;6.03;4.90;;;13.70;74.80;;;;;;5054237;28;20028;-77
2021/11/13 11:42:22;;;;;;;5.90;4.50;;;13.70;74.80;;;;;;5054075;28;20449;-77
2021/11/13 11:44:50;;;;;;;6.47;5.03;;;13.80;74.80;;;;;;5057000;28;20086;-77
2021/11/13 11:47:19;;;;;;;6.13;4.88;;;13.80;74.80;;;;;;5056399;28;20064;-77
2021/11/13 11:49:51;;;;;;;5.80;4.47;;;13.80;74.80;;;;;;5072767;28;20033;-77
2021/11/13 11:52:19;;;;;;;6.10;4.70;;;13.80;74.80;;;;;;5057019;28;20039;-78
2021/11/13 11:54:46;;;;;;;5.97;4.72;;;13.80;74.80;;;;;;5055823;28;20460;-78
2021/11/13 11:57:13;;;;;;;6.78;5.00;;;13.90;74.80;;;;;;5057402;28;20025;-77
2021/11/13 11:59:40;;;;;;;5.65;4.45;;;13.90;74.80;;;;;;5072077;28;20017;-79
2021/11/13 12:02:15;;;;;;;5.85;4.65;;;13.90;74.80;;;;;;5055792;28;20049;-77
2021/11/13 12:04:43;;;;;;;5.97;4.72;;;13.90;74.80;;;;;;5057353;28;20036;-78
2021/11/13 12:07:10;;;;;;;6.60;4.43;;;13.90;74.80;;;;;;5055771;28;20103;-78
2021/11/13 12:10:01;;;;;;;6.57;4.80;;;14.00;74.80;;;;;;5055874;28;20032;-78
2021/11/13 12:12:27;;;;;;;7.13;4.40;;;14.00;75.00;;;;;;5055330;28;20029;-78
2021/11/13 12:15:09;;;;;;;6.28;4.35;;;14.00;74.80;;;;;;5056229;28;20110;-77
2021/11/13 12:17:36;;;;;;;6.10;4.38;;;14.00;74.90;;;;;;5056274;28;20025;-78
2021/11/13 12:20:05;;;;;;;5.40;4.22;;;14.00;74.80;;;;;;5057015;28;20051;-79
2021/11/13 12:22:43;;;;;;;6.10;4.35;;;14.10;74.90;;;;;;5056746;28;20025;-80
2021/11/13 12:25:24;;;;;;;5.13;3.92;;;14.10;75.00;;;;;;5055022;28;20107;-81
2021/11/13 12:28:18;;;;;;;5.22;3.90;;;14.10;75.00;;;;;;5055967;28;20029;-77
2021/11/13 12:31:01;;;;;;;5.28;3.90;;;14.10;75.00;;;;;;5056127;28;20052;-78
2021/11/13 12:33:26;;;;;;;5.15;3.85;;;14.10;75.00;;;;;;5055085;28;20037;-78
2021/11/13 12:36:11;;;;;;;4.88;3.83;;;14.10;74.90;;;;;;5055882;28;20027;-78
2021/11/13 12:38:39;;;;;;;4.97;3.83;;;14.20;74.90;;;;;;5054911;28;20104;-79
2021/11/13 12:41:42;;;;;;;5.78;4.20;;;14.20;74.90;;;;;;5055302;28;20487;-79
2021/11/13 12:44:15;;;;;;;5.05;3.60;;;14.20;75.00;;;;;;5055834;28;20025;-79
2021/11/13 12:46:43;;;;;;;5.65;4.07;;;14.20;74.90;;;;;;5055061;28;20120;-79
2021/11/13 12:49:18;;;;;;;4.63;3.75;;;14.30;74.90;;;;;;5055091;28;20021;-78
2021/11/13 12:51:56;;;;;;;3.90;3.30;;;14.30;75.00;;;;;;5055736;28;20044;-78
2021/11/13 12:54:27;;;;;;;5.53;3.97;;;14.30;74.90;;;;;;5054324;28;20033;-78